Terminal Aerodrome Forecast
Issued by NWS Sterling, VA

Home | Current Version | Previous Version | Text Only | Print | Product List | Glossary On
Versions: 1 2 3 4 5 6 7 8 9 10 11 12 13 14 15 16 17 18 19 20 21 22
598
FTUS41 KLWX 201124
TAFMRB
TAF
KMRB 201124Z 2012/2112 VRB03KT 6SM -SHRA BR OVC050
     FM201400 13004KT 5SM -RA BR OVC025
     FM201700 14005KT 5SM -RA BR OVC008
     FM202000 14005KT 6SM -DZ BR OVC008
     FM202300 VRB03KT 6SM -DZ BR OVC003
     FM210600 00000KT 3SM -DZ BR OVC008=

USA.gov is the U.S. government's official web portal to all federal, state and local government web resources and services.